createdAt,value
2022-10-06T00:00:23.013Z,90.53
2022-10-06T00:01:24.375Z,90.83
2022-10-06T00:02:23.893Z,90.53
2022-10-06T00:03:26.713Z,90.88
2022-10-06T00:04:27.565Z,90.97
2022-10-06T00:05:24.406Z,91.08
2022-10-06T00:06:27.646Z,90.62
2022-10-06T00:07:25.889Z,90.53
2022-10-06T00:08:26.678Z,90.36
2022-10-06T00:09:29.081Z,89.92
2022-10-06T00:10:25.897Z,89.61
2022-10-06T00:11:27.213Z,89.01
2022-10-06T00:12:27.433Z,89.01
2022-10-06T00:13:28.657Z,88.70
2022-10-06T00:14:29.164Z,88.60
2022-10-06T00:15:28.203Z,88.40
2022-10-06T00:16:28.670Z,88.49
2022-10-06T00:17:27.971Z,88.40
2022-10-06T00:18:28.617Z,88.20
2022-10-06T00:19:29.346Z,87.95
2022-10-06T00:20:30.795Z,88.05
2022-10-06T00:21:31.722Z,87.95
2022-10-06T00:22:29.499Z,88.20
2022-10-06T00:23:32.680Z,88.56
2022-10-06T00:24:30.889Z,87.95
2022-10-06T00:25:32.345Z,88.25
2022-10-06T00:26:30.719Z,88.15
2022-10-06T00:27:30.941Z,88.56
2022-10-06T00:28:31.824Z,88.56
2022-10-06T00:29:33.438Z,88.76
2022-10-06T00:30:33.595Z,88.46
2022-10-06T00:31:34.154Z,88.76
2022-10-06T00:32:32.368Z,89.06
2022-10-06T00:33:32.744Z,88.96
2022-10-06T00:34:33.775Z,88.76
2022-10-06T00:35:35.289Z,88.96
2022-10-06T00:36:33.594Z,88.96
2022-10-06T00:37:34.727Z,89.12
2022-10-06T00:38:35.968Z,89.23
2022-10-06T00:39:34.359Z,89.43
2022-10-06T00:40:36.506Z,89.32
2022-10-06T00:41:35.910Z,89.73
2022-10-06T00:42:36.073Z,89.53
2022-10-06T00:43:37.396Z,89.73
2022-10-06T00:44:35.847Z,90.14
2022-10-06T00:45:36.034Z,90.84
2022-10-06T00:46:37.396Z,91.30
2022-10-06T00:47:38.563Z,92.21
2022-10-06T00:48:37.756Z,92.65
2022-10-06T00:49:38.949Z,92.54
2022-10-06T00:50:39.133Z,92.64
2022-10-06T00:51:40.818Z,93.40
2022-10-06T00:52:38.234Z,93.64
2022-10-06T00:53:39.429Z,94.15
2022-10-06T00:54:38.805Z,94.56
2022-10-06T00:55:39.108Z,94.66
2022-10-06T00:56:42.270Z,94.90
2022-10-06T00:57:41.570Z,95.10
2022-10-06T00:58:41.739Z,94.60
2022-10-06T00:59:41.918Z,94.50
2022-10-06T01:00:40.552Z,94.15
2022-10-06T01:01:41.733Z,93.84
2022-10-06T01:02:43.087Z,93.59
2022-10-06T01:03:43.280Z,93.38
2022-10-06T01:04:41.797Z,93.28
2022-10-06T01:05:42.187Z,92.91
2022-10-06T01:06:42.504Z,92.77
2022-10-06T01:07:43.643Z,92.47
2022-10-06T01:08:44.832Z,92.47
2022-10-06T01:09:43.338Z,92.36
2022-10-06T01:10:43.658Z,92.26
2022-10-06T01:11:46.471Z,92.57
2022-10-06T01:12:44.248Z,92.57
2022-10-06T01:13:44.559Z,92.67
2022-10-06T01:14:46.744Z,92.67
2022-10-06T01:15:45.252Z,92.67
2022-10-06T01:16:48.314Z,92.67
2022-10-06T01:17:47.548Z,92.36
2022-10-06T01:18:47.781Z,92.57
2022-10-06T01:19:46.410Z,92.47
2022-10-06T01:20:46.737Z,92.57
2022-10-06T01:21:49.887Z,92.57
2022-10-06T01:22:47.294Z,92.47
2022-10-06T01:23:49.471Z,92.67
2022-10-06T01:24:49.665Z,92.63
2022-10-06T01:25:48.180Z,92.22
2022-10-06T01:26:51.357Z,91.61
2022-10-06T01:27:48.814Z,91.00
2022-10-06T01:28:49.096Z,90.09
2022-10-06T01:29:51.183Z,89.58
2022-10-06T01:30:51.413Z,89.48
2022-10-06T01:31:52.358Z,89.28
2022-10-06T01:32:50.136Z,89.54
2022-10-06T01:33:52.316Z,89.28
2022-10-06T01:34:50.700Z,89.03
2022-10-06T01:35:51.022Z,88.82
2022-10-06T01:36:54.804Z,89.23
2022-10-06T01:37:51.592Z,88.93
2022-10-06T01:38:51.916Z,88.82
2022-10-06T01:39:52.227Z,88.58
2022-10-06T01:40:54.416Z,88.38
2022-10-06T01:41:53.701Z,88.32
2022-10-06T01:42:53.077Z,88.21
2022-10-06T01:43:55.255Z,87.77
2022-10-06T01:44:55.456Z,87.57
2022-10-06T01:45:53.973Z,87.46
2022-10-06T01:46:55.756Z,87.46
2022-10-06T01:47:56.485Z,87.57
2022-10-06T01:48:56.671Z,87.37
2022-10-06T01:49:55.174Z,87.77
2022-10-06T01:50:55.486Z,87.83
2022-10-06T01:51:58.286Z,88.03
2022-10-06T01:52:58.043Z,88.34
2022-10-06T01:53:58.221Z,88.64
2022-10-06T01:54:56.616Z,88.95
2022-10-06T01:55:56.948Z,88.95
2022-10-06T01:57:00.611Z,89.11
2022-10-06T01:57:59.318Z,88.95
2022-10-06T01:58:59.505Z,88.40
2022-10-06T01:59:58.136Z,87.99
2022-10-06T02:00:58.446Z,87.89
2022-10-06T02:02:01.309Z,87.38
2022-10-06T02:03:00.967Z,86.98
2022-10-06T02:04:02.628Z,86.77
2022-10-06T02:05:01.337Z,86.47
2022-10-06T02:06:01.571Z,85.76
2022-10-06T02:07:00.287Z,85.46
2022-10-06T02:08:01.414Z,85.05
2022-10-06T02:09:03.521Z,84.85
2022-10-06T02:10:02.002Z,84.55
2022-10-06T02:11:02.183Z,84.44
2022-10-06T02:12:04.522Z,84.61
2022-10-06T02:13:02.759Z,84.70
2022-10-06T02:14:04.114Z,84.75
2022-10-06T02:15:04.298Z,84.75
2022-10-06T02:16:03.818Z,84.70
2022-10-06T02:17:04.168Z,85.15
2022-10-06T02:18:04.333Z,85.21
2022-10-06T02:19:05.667Z,85.42
2022-10-06T02:20:03.930Z,85.96
2022-10-06T02:21:07.599Z,86.88
2022-10-06T02:22:07.273Z,87.63
2022-10-06T02:23:05.637Z,88.13
2022-10-06T02:24:06.054Z,87.22
2022-10-06T02:25:07.326Z,86.86
2022-10-06T02:26:06.643Z,87.16
2022-10-06T02:27:08.835Z,87.06
2022-10-06T02:28:07.308Z,87.37
2022-10-06T02:29:07.373Z,87.16
2022-10-06T02:30:08.718Z,87.52
2022-10-06T02:31:08.026Z,87.26
2022-10-06T02:32:07.462Z,87.46
2022-10-06T02:33:07.654Z,88.07
2022-10-06T02:34:07.964Z,88.07
2022-10-06T02:35:09.156Z,88.18
2022-10-06T02:36:08.556Z,88.03
2022-10-06T02:37:12.175Z,87.93
2022-10-06T02:38:09.220Z,87.87
2022-10-06T02:39:11.386Z,87.73
2022-10-06T02:40:11.702Z,87.52
2022-10-06T02:41:11.876Z,87.22
2022-10-06T02:42:12.023Z,87.08
2022-10-06T02:43:10.661Z,86.07
2022-10-06T02:44:12.841Z,85.96
2022-10-06T02:45:13.035Z,85.86
2022-10-06T02:46:11.562Z,85.86
2022-10-06T02:47:12.201Z,85.66
2022-10-06T02:48:12.175Z,85.96
2022-10-06T02:49:12.489Z,85.76
2022-10-06T02:50:14.714Z,85.76
2022-10-06T02:51:13.095Z,85.76
2022-10-06T02:52:15.259Z,86.16
2022-10-06T02:53:15.435Z,85.30
2022-10-06T02:54:15.627Z,84.78
2022-10-06T02:55:15.807Z,82.31
2022-10-06T02:56:16.496Z,80.90
2022-10-06T02:57:16.679Z,80.79
2022-10-06T02:58:16.860Z,80.49
2022-10-06T02:59:17.057Z,79.82
2022-10-06T03:00:17.761Z,79.00
2022-10-06T03:01:16.254Z,78.40
2022-10-06T03:02:18.448Z,77.79
2022-10-06T03:03:16.699Z,77.48
2022-10-06T03:04:18.874Z,77.65
2022-10-06T03:05:19.136Z,77.79
2022-10-06T03:06:17.520Z,78.19
2022-10-06T03:07:19.708Z,78.40
2022-10-06T03:08:18.097Z,78.80
2022-10-06T03:09:18.414Z,79.21
2022-10-06T03:10:20.591Z,79.51
2022-10-06T03:11:19.936Z,79.51
2022-10-06T03:12:21.183Z,79.72
2022-10-06T03:13:19.576Z,80.22
2022-10-06T03:14:22.131Z,80.53
2022-10-06T03:15:20.142Z,80.32
2022-10-06T03:16:23.831Z,80.43
2022-10-06T03:17:22.092Z,80.53
2022-10-06T03:18:21.092Z,80.02
2022-10-06T03:19:21.408Z,80.02
2022-10-06T03:20:21.717Z,80.22
2022-10-06T03:21:24.933Z,80.22
2022-10-06T03:22:24.159Z,80.53
2022-10-06T03:23:24.360Z,80.66
2022-10-06T03:24:23.002Z,80.77
2022-10-06T03:25:23.310Z,80.83
2022-10-06T03:26:24.423Z,80.87
2022-10-06T03:27:25.825Z,80.77
2022-10-06T03:28:24.286Z,80.87
2022-10-06T03:29:24.440Z,80.77
2022-10-06T03:30:24.751Z,80.26
2022-10-06T03:31:29.549Z,80.32
2022-10-06T03:32:27.171Z,80.57
2022-10-06T03:33:25.548Z,80.77
2022-10-06T03:34:27.705Z,80.36
2022-10-06T03:35:26.190Z,80.46
2022-10-06T03:36:27.301Z,80.46
2022-10-06T03:37:28.712Z,80.97
2022-10-06T03:38:27.516Z,81.18
2022-10-06T03:39:27.433Z,81.07
2022-10-06T03:40:27.746Z,81.27
2022-10-06T03:41:29.104Z,81.04
2022-10-06T03:42:30.274Z,80.77
2022-10-06T03:43:28.661Z,80.36
2022-10-06T03:44:30.841Z,79.96
2022-10-06T03:45:31.054Z,79.65
2022-10-06T03:46:29.643Z,79.14
2022-10-06T03:47:32.725Z,78.23
2022-10-06T03:48:30.509Z,77.83
2022-10-06T03:49:33.270Z,76.87
2022-10-06T03:50:30.673Z,76.98
2022-10-06T03:51:32.778Z,76.67
2022-10-06T03:52:32.164Z,76.87
2022-10-06T03:54:49.341Z,77.38
2022-10-06T03:55:49.544Z,77.79
2022-10-06T03:56:49.972Z,77.99
2022-10-06T03:57:49.339Z,78.40
2022-10-06T03:58:51.527Z,78.50
2022-10-06T03:59:50.958Z,78.30
2022-10-06T04:00:51.158Z,78.19
2022-10-06T04:01:51.565Z,77.99
2022-10-06T04:02:51.685Z,77.18
2022-10-06T04:03:54.046Z,76.64
2022-10-06T04:04:53.286Z,76.47
2022-10-06T04:05:52.634Z,76.98
2022-10-06T04:06:52.839Z,76.78
2022-10-06T04:07:54.191Z,76.78
2022-10-06T04:08:55.376Z,77.08
2022-10-06T04:09:52.905Z,77.38
2022-10-06T04:10:53.426Z,77.69
2022-10-06T04:11:53.444Z,77.79
2022-10-06T04:12:53.760Z,77.99
2022-10-06T04:13:54.983Z,78.09
2022-10-06T04:14:59.942Z,77.95
2022-10-06T04:15:54.650Z,77.75
2022-10-06T04:16:54.921Z,77.65
2022-10-06T04:17:55.243Z,77.65
2022-10-06T04:18:56.553Z,77.34
2022-10-06T04:19:57.807Z,77.04
2022-10-06T04:20:56.056Z,76.94
2022-10-06T04:21:57.389Z,77.45
2022-10-06T04:22:57.582Z,77.55
2022-10-06T04:23:59.807Z,78.06
2022-10-06T04:24:58.061Z,78.30
2022-10-06T04:25:57.560Z,78.46
2022-10-06T04:26:58.904Z,78.87
2022-10-06T04:27:58.202Z,79.38
2022-10-06T04:29:00.348Z,79.82
2022-10-06T04:29:58.750Z,80.32
2022-10-06T04:31:00.927Z,80.73
2022-10-06T04:32:02.159Z,80.83
2022-10-06T04:32:59.620Z,81.04
2022-10-06T04:34:01.802Z,81.04
2022-10-06T04:35:01.969Z,80.99
2022-10-06T04:36:02.163Z,81.24
2022-10-06T04:37:03.328Z,81.74
2022-10-06T04:38:01.109Z,82.05
2022-10-06T04:39:03.289Z,81.64
2022-10-06T04:40:01.677Z,82.25
2022-10-06T04:41:03.862Z,82.05
2022-10-06T04:42:04.843Z,82.35
2022-10-06T04:43:04.260Z,82.29
2022-10-06T04:44:02.773Z,82.05
2022-10-06T04:45:04.954Z,82.05
2022-10-06T04:46:18.128Z,82.19
2022-10-06T04:47:07.508Z,81.34
2022-10-06T04:48:05.741Z,81.04
2022-10-06T04:49:04.245Z,80.43
2022-10-06T04:50:04.558Z,79.82
2022-10-06T04:51:04.862Z,79.41
2022-10-06T04:52:08.027Z,78.40
2022-10-06T04:53:06.272Z,77.89
2022-10-06T04:54:05.761Z,78.09
2022-10-06T04:55:06.917Z,77.99
2022-10-06T04:56:06.412Z,77.99
2022-10-06T04:57:10.110Z,78.30
2022-10-06T04:58:09.822Z,78.60
2022-10-06T04:59:09.056Z,78.60
2022-10-06T05:00:13.923Z,78.91
2022-10-06T05:01:09.963Z,79.00
2022-10-06T05:02:08.362Z,78.80
2022-10-06T05:03:11.971Z,78.80
2022-10-06T05:04:10.675Z,78.91
2022-10-06T05:05:10.858Z,79.21
2022-10-06T05:06:11.039Z,78.70
2022-10-06T05:07:09.794Z,78.30
2022-10-06T05:08:12.101Z,77.95
2022-10-06T05:09:11.206Z,77.79
2022-10-06T05:10:12.566Z,77.48
2022-10-06T05:11:15.062Z,77.59
2022-10-06T05:12:12.293Z,77.28
2022-10-06T05:13:13.483Z,77.08
2022-10-06T05:14:11.875Z,77.38
2022-10-06T05:15:12.194Z,77.18
2022-10-06T05:16:12.589Z,77.38
2022-10-06T05:17:12.867Z,77.69
2022-10-06T05:18:15.039Z,78.30
2022-10-06T05:19:15.221Z,78.30
2022-10-06T05:20:13.740Z,78.40
2022-10-06T05:21:15.926Z,78.60
2022-10-06T05:22:14.326Z,78.40
2022-10-06T05:23:14.742Z,78.50
2022-10-06T05:24:14.980Z,78.70
2022-10-06T05:25:15.197Z,78.80
2022-10-06T05:26:17.371Z,79.11
2022-10-06T05:27:15.778Z,79.31
2022-10-06T05:28:16.166Z,79.11
2022-10-06T05:29:16.356Z,78.50
2022-10-06T05:30:16.705Z,78.50
2022-10-06T05:31:19.887Z,78.60
2022-10-06T05:32:20.003Z,78.91
2022-10-06T05:33:19.001Z,78.80
2022-10-06T05:34:21.184Z,79.00
2022-10-06T05:35:18.097Z,79.11
2022-10-06T05:36:18.447Z,79.00
2022-10-06T05:37:18.780Z,78.91
2022-10-06T05:38:20.974Z,78.91
2022-10-06T05:39:21.155Z,78.91
2022-10-06T05:40:20.523Z,79.00
2022-10-06T05:41:19.912Z,79.00
2022-10-06T05:42:20.250Z,78.66
2022-10-06T05:43:22.440Z,79.00
2022-10-06T05:44:22.612Z,79.41
2022-10-06T05:45:21.149Z,79.17
2022-10-06T05:46:22.258Z,79.27
2022-10-06T05:47:22.607Z,79.41
2022-10-06T05:48:23.833Z,79.21
2022-10-06T05:49:22.984Z,79.00
2022-10-06T05:50:25.300Z,78.77
2022-10-06T05:51:27.911Z,78.87
2022-10-06T05:52:26.907Z,79.11
2022-10-06T05:53:25.156Z,78.70
2022-10-06T05:54:23.715Z,78.50
2022-10-06T05:55:25.916Z,78.30
2022-10-06T05:56:25.127Z,78.19
2022-10-06T05:57:24.579Z,78.19
2022-10-06T05:58:26.757Z,78.30
2022-10-06T05:59:25.067Z,78.60
2022-10-06T06:00:25.287Z,78.70
2022-10-06T06:01:26.623Z,78.91
2022-10-06T06:02:26.879Z,79.21
2022-10-06T06:03:28.061Z,79.31
2022-10-06T06:04:28.238Z,79.11
2022-10-06T06:05:28.430Z,79.31
2022-10-06T06:06:28.092Z,79.45
2022-10-06T06:07:29.256Z,79.35
2022-10-06T06:08:29.687Z,79.41
2022-10-06T06:09:30.034Z,78.91
2022-10-06T06:10:29.900Z,78.50
2022-10-06T06:11:28.562Z,77.79
2022-10-06T06:12:30.766Z,77.45
2022-10-06T06:13:31.892Z,76.74
2022-10-06T06:14:31.334Z,76.33
2022-10-06T06:15:31.336Z,76.64
2022-10-06T06:16:31.584Z,76.84
2022-10-06T06:17:31.687Z,77.34
2022-10-06T06:18:32.778Z,77.45
2022-10-06T06:19:33.541Z,77.95
2022-10-06T06:20:32.770Z,78.36
2022-10-06T06:21:32.928Z,78.66
2022-10-06T06:22:33.115Z,78.77
2022-10-06T06:23:32.811Z,78.36
2022-10-06T06:24:35.002Z,78.26
2022-10-06T06:25:32.561Z,78.16
2022-10-06T06:26:32.786Z,77.95
2022-10-06T06:27:35.000Z,78.06
2022-10-06T06:28:35.233Z,78.26
2022-10-06T06:29:34.758Z,78.46
2022-10-06T06:30:35.959Z,78.36
2022-10-06T06:31:36.166Z,78.26
2022-10-06T06:32:34.674Z,78.22
2022-10-06T06:33:36.853Z,77.92
2022-10-06T06:34:37.993Z,78.02
2022-10-06T06:35:35.445Z,78.22
2022-10-06T06:36:36.703Z,78.12
2022-10-06T06:37:37.903Z,78.12
2022-10-06T06:38:38.085Z,78.53
2022-10-06T06:39:38.264Z,78.42
2022-10-06T06:40:38.949Z,78.63
2022-10-06T06:41:38.262Z,78.63
2022-10-06T06:42:37.532Z,78.93
2022-10-06T06:43:39.810Z,78.73
2022-10-06T06:44:37.983Z,78.73
2022-10-06T06:45:39.430Z,78.63
2022-10-06T06:46:42.030Z,78.63
2022-10-06T06:47:38.851Z,77.92
2022-10-06T06:48:39.085Z,77.78
2022-10-06T06:49:39.313Z,77.48
2022-10-06T06:50:40.427Z,77.17
2022-10-06T06:51:41.945Z,77.17
2022-10-06T06:52:40.116Z,76.67
2022-10-06T06:53:40.356Z,76.26
2022-10-06T06:54:40.580Z,76.06
2022-10-06T06:55:40.915Z,75.96
2022-10-06T06:56:43.026Z,75.76
2022-10-06T06:57:41.448Z,75.65
2022-10-06T06:58:41.677Z,75.35
2022-10-06T06:59:41.907Z,75.25
2022-10-06T07:00:42.305Z,74.74
2022-10-06T07:01:43.475Z,73.96
2022-10-06T07:02:44.610Z,73.46
2022-10-06T07:03:57.075Z,72.61
2022-10-06T07:04:44.153Z,71.87
2022-10-06T07:05:44.408Z,72.11
2022-10-06T07:06:45.639Z,71.77
2022-10-06T07:07:45.819Z,71.44
2022-10-06T07:08:44.237Z,71.44
2022-10-06T07:09:46.400Z,71.33
2022-10-06T07:10:44.894Z,71.23
2022-10-06T07:11:47.038Z,71.57
2022-10-06T07:12:45.449Z,70.59
2022-10-06T07:13:47.640Z,71.64
2022-10-06T07:14:46.065Z,71.64
2022-10-06T07:15:49.780Z,71.94
2022-10-06T07:16:46.692Z,71.80
2022-10-06T07:17:48.880Z,71.50
2022-10-06T07:18:49.062Z,70.49
2022-10-06T07:19:47.494Z,70.59
2022-10-06T07:20:51.177Z,70.19
2022-10-06T07:21:47.981Z,70.19
2022-10-06T07:22:50.168Z,70.36
2022-10-06T07:23:50.345Z,68.84
2022-10-06T07:24:49.707Z,68.54
2022-10-06T07:25:52.436Z,69.28
2022-10-06T07:26:49.254Z,68.74
2022-10-06T07:27:51.430Z,68.44
2022-10-06T07:28:49.859Z,68.71
2022-10-06T07:29:50.347Z,68.54
2022-10-06T07:30:53.222Z,68.64
2022-10-06T07:31:50.664Z,68.44
2022-10-06T07:32:53.803Z,68.30
2022-10-06T07:33:51.245Z,67.80
2022-10-06T07:34:51.750Z,68.13
2022-10-06T07:35:52.759Z,67.16
2022-10-06T07:36:52.051Z,67.40
2022-10-06T07:37:54.242Z,68.30
2022-10-06T07:38:53.478Z,68.84
2022-10-06T07:39:55.665Z,68.51
2022-10-06T07:41:17.906Z,69.48
2022-10-06T07:41:54.393Z,70.83
2022-10-06T07:42:53.687Z,71.23
2022-10-06T07:43:55.866Z,72.04
2022-10-06T07:44:56.446Z,71.17
2022-10-06T07:45:57.189Z,71.73
2022-10-06T07:46:55.528Z,72.85
2022-10-06T07:47:56.907Z,72.75
2022-10-06T07:48:55.323Z,72.95
2022-10-06T07:49:55.674Z,72.81
2022-10-06T07:50:57.469Z,71.97
2022-10-06T07:51:56.139Z,71.23
2022-10-06T07:52:59.748Z,71.94
2022-10-06T07:53:59.437Z,71.73
2022-10-06T07:54:57.829Z,70.79
2022-10-06T07:56:00.157Z,72.51
2022-10-06T07:56:58.406Z,71.73
2022-10-06T07:57:58.569Z,71.53
2022-10-06T07:58:59.923Z,71.06
2022-10-06T08:00:02.882Z,69.25
2022-10-06T08:01:00.325Z,69.89
2022-10-06T08:02:00.699Z,69.45
2022-10-06T08:02:59.920Z,69.79
2022-10-06T08:04:01.226Z,71.77
2022-10-06T08:05:01.399Z,72.44
2022-10-06T08:06:02.550Z,73.79
2022-10-06T08:07:01.855Z,73.42
2022-10-06T08:08:02.467Z,72.78
2022-10-06T08:09:01.742Z,72.54
2022-10-06T08:10:02.015Z,71.57
2022-10-06T08:11:04.734Z,70.86
2022-10-06T08:12:02.563Z,70.59
2022-10-06T08:13:03.941Z,70.69
2022-10-06T08:14:02.123Z,70.15
2022-10-06T08:15:05.980Z,69.21
2022-10-06T08:16:07.145Z,69.21
2022-10-06T08:17:02.967Z,68.31
2022-10-06T08:18:12.171Z,68.61
2022-10-06T08:19:04.438Z,69.21
2022-10-06T08:20:03.955Z,68.81
2022-10-06T08:21:06.098Z,68.31
2022-10-06T08:22:07.768Z,67.91
2022-10-06T08:23:06.395Z,69.52
2022-10-06T08:24:06.591Z,71.30
2022-10-06T08:25:07.313Z,72.44
2022-10-06T08:26:07.969Z,72.44
2022-10-06T08:27:07.192Z,71.47
2022-10-06T08:28:09.422Z,70.42
2022-10-06T08:29:08.064Z,68.95
2022-10-06T08:30:07.650Z,68.04
2022-10-06T08:31:09.854Z,68.04
2022-10-06T08:32:09.052Z,68.44
2022-10-06T08:33:09.228Z,68.74
2022-10-06T08:34:12.064Z,68.08
2022-10-06T08:35:08.065Z,68.61
2022-10-06T08:36:11.749Z,68.81
2022-10-06T08:37:19.958Z,68.28
2022-10-06T08:38:11.823Z,69.38
2022-10-06T08:39:10.993Z,68.01
2022-10-06T08:40:11.157Z,69.28
2022-10-06T08:41:10.565Z,68.07
2022-10-06T08:42:11.976Z,67.07
2022-10-06T08:43:12.280Z,67.33
2022-10-06T08:44:12.406Z,67.00
2022-10-06T08:45:12.573Z,65.79
2022-10-06T08:46:12.740Z,65.06
2022-10-06T08:47:11.419Z,64.81
2022-10-06T08:48:13.662Z,65.95
2022-10-06T08:49:13.857Z,66.53
2022-10-06T08:50:12.390Z,66.22
2022-10-06T08:51:14.488Z,65.99
2022-10-06T08:52:12.924Z,66.19
2022-10-06T08:53:16.293Z,65.99
2022-10-06T08:54:15.356Z,66.33
2022-10-06T08:55:13.791Z,66.33
2022-10-06T08:56:15.973Z,66.02
2022-10-06T08:57:16.304Z,65.26
2022-10-06T08:58:16.385Z,64.58
2022-10-06T08:59:16.573Z,64.81
2022-10-06T09:00:19.487Z,65.12
2022-10-06T09:01:18.475Z,65.12
2022-10-06T09:02:15.826Z,65.39
2022-10-06T09:03:16.900Z,65.66
2022-10-06T09:04:18.274Z,66.06
2022-10-06T09:05:16.587Z,65.19
2022-10-06T09:06:18.784Z,65.19
2022-10-06T09:07:17.094Z,66.13
2022-10-06T09:08:17.333Z,66.50
2022-10-06T09:09:19.513Z,66.56
2022-10-06T09:10:18.083Z,66.83
2022-10-06T09:11:20.029Z,66.33
2022-10-06T09:12:18.466Z,66.23
2022-10-06T09:13:21.748Z,67.27
2022-10-06T09:14:19.050Z,66.53
2022-10-06T09:15:20.105Z,66.74
2022-10-06T09:16:19.605Z,67.34
2022-10-06T09:17:21.716Z,66.13
2022-10-06T09:18:20.154Z,65.90
2022-10-06T09:19:20.413Z,65.67
2022-10-06T09:20:20.707Z,66.20
2022-10-06T09:21:24.353Z,66.91
2022-10-06T09:22:21.210Z,67.77
2022-10-06T09:23:23.378Z,67.91
2022-10-06T09:24:21.693Z,66.87
2022-10-06T09:25:23.845Z,66.67
2022-10-06T09:26:24.036Z,66.71
2022-10-06T09:27:22.489Z,66.07
2022-10-06T09:28:22.771Z,67.64
2022-10-06T09:29:22.982Z,67.44
2022-10-06T09:30:26.140Z,67.43
2022-10-06T09:31:24.949Z,69.99
2022-10-06T09:32:25.649Z,70.29
2022-10-06T09:33:24.084Z,68.38
2022-10-06T09:34:24.333Z,67.88
2022-10-06T09:35:27.493Z,69.42
2022-10-06T09:36:24.814Z,68.08
2022-10-06T09:37:26.988Z,68.15
2022-10-06T09:38:25.299Z,67.00
2022-10-06T09:39:25.538Z,67.00
2022-10-06T09:40:26.661Z,66.74
2022-10-06T09:41:27.063Z,67.64
2022-10-06T09:42:26.375Z,66.57
2022-10-06T09:43:26.615Z,67.27
2022-10-06T09:44:26.860Z,65.47
2022-10-06T09:45:30.522Z,66.77
2022-10-06T09:46:27.344Z,68.21
2022-10-06T09:47:30.972Z,69.89
2022-10-06T09:48:31.168Z,71.17
2022-10-06T09:49:28.108Z,72.00
2022-10-06T09:50:31.815Z,70.39
2022-10-06T09:51:29.603Z,69.21
2022-10-06T09:52:30.827Z,68.48
2022-10-06T09:53:35.489Z,68.28
2022-10-06T09:54:31.449Z,67.88
2022-10-06T09:55:30.756Z,68.48
2022-10-06T09:56:31.995Z,67.03
2022-10-06T09:57:32.185Z,67.03
2022-10-06T09:58:30.611Z,68.44
2022-10-06T09:59:30.857Z,67.00
2022-10-06T10:00:34.034Z,67.88
2022-10-06T10:01:33.303Z,67.64
2022-10-06T10:02:33.514Z,67.81
2022-10-06T10:03:32.904Z,67.07
2022-10-06T10:04:33.259Z,66.14
2022-10-06T10:05:36.011Z,66.10
2022-10-06T10:06:32.839Z,67.34
2022-10-06T10:07:35.022Z,66.60
2022-10-06T10:09:33.545Z,66.53
2022-10-06T10:10:37.199Z,66.30
2022-10-06T10:11:34.949Z,66.80
2022-10-06T10:12:35.788Z,67.14
2022-10-06T10:13:34.491Z,66.53
2022-10-06T10:14:37.623Z,66.91
2022-10-06T10:15:38.323Z,67.21
2022-10-06T10:16:36.308Z,66.50
2022-10-06T10:17:38.415Z,66.71
2022-10-06T10:18:36.815Z,66.61
2022-10-06T10:19:36.999Z,65.77
2022-10-06T10:20:39.871Z,65.64
2022-10-06T10:21:38.622Z,65.34
2022-10-06T10:22:38.806Z,66.00
2022-10-06T10:23:38.990Z,68.91
2022-10-06T10:24:38.502Z,68.55
2022-10-06T10:25:38.772Z,67.98
2022-10-06T10:26:40.006Z,67.14
2022-10-06T10:27:38.339Z,67.14
2022-10-06T10:28:40.523Z,66.38
2022-10-06T10:29:38.824Z,65.44
2022-10-06T10:30:40.037Z,65.57
2022-10-06T10:31:40.465Z,65.60
2022-10-06T10:32:41.521Z,66.64
2022-10-06T10:33:49.672Z,67.03
2022-10-06T10:34:41.281Z,68.65
2022-10-06T10:35:43.465Z,68.58
2022-10-06T10:36:40.902Z,68.85
2022-10-06T10:37:41.143Z,68.48
2022-10-06T10:38:44.837Z,67.78
2022-10-06T10:39:41.925Z,68.82
2022-10-06T10:40:41.989Z,69.06
2022-10-06T10:41:42.232Z,66.98
2022-10-06T10:42:43.423Z,66.38
2022-10-06T10:43:42.827Z,66.14
2022-10-06T10:44:42.948Z,66.94
2022-10-06T10:45:43.194Z,69.79
2022-10-06T10:46:43.534Z,70.50
2022-10-06T10:47:44.652Z,72.47
2022-10-06T10:48:46.039Z,73.11
2022-10-06T10:49:46.112Z,73.42
2022-10-06T10:50:46.245Z,73.99
2022-10-06T10:51:46.426Z,71.00
2022-10-06T10:52:47.105Z,69.62
2022-10-06T10:53:46.563Z,71.53
2022-10-06T10:54:47.803Z,72.67
2022-10-06T10:55:47.988Z,73.45
2022-10-06T10:56:48.170Z,73.68
2022-10-06T10:57:48.345Z,74.08
2022-10-06T10:58:50.061Z,72.85
2022-10-06T10:59:48.801Z,71.03
2022-10-06T11:00:49.561Z,69.89
2022-10-06T11:01:48.743Z,70.43
2022-10-06T11:02:49.889Z,70.50
2022-10-06T11:03:51.080Z,70.39
2022-10-06T11:04:48.640Z,69.09
2022-10-06T11:05:50.854Z,67.75
2022-10-06T11:06:49.146Z,69.69
2022-10-06T11:07:49.409Z,69.29
2022-10-06T11:08:49.636Z,69.42
2022-10-06T11:09:49.881Z,69.09
2022-10-06T11:10:52.075Z,69.62
2022-10-06T11:11:52.433Z,68.91
2022-10-06T11:12:50.678Z,68.59
2022-10-06T11:13:50.973Z,67.35
2022-10-06T11:14:51.219Z,66.64
2022-10-06T11:15:53.495Z,66.38
2022-10-06T11:16:53.600Z,65.34
2022-10-06T11:17:52.042Z,65.41
2022-10-06T11:18:52.282Z,66.88
2022-10-06T11:19:52.519Z,65.24
2022-10-06T11:20:54.675Z,64.97
2022-10-06T11:21:54.864Z,65.47
2022-10-06T11:22:55.090Z,66.51
2022-10-06T11:23:53.648Z,68.55
2022-10-06T11:24:53.926Z,66.94
2022-10-06T11:25:54.140Z,68.15
2022-10-06T11:26:54.381Z,68.02
2022-10-06T11:27:56.619Z,67.44
2022-10-06T11:28:56.718Z,68.02
2022-10-06T11:29:55.321Z,67.85
2022-10-06T11:30:57.342Z,68.05
2022-10-06T11:31:57.680Z,67.61
2022-10-06T11:32:56.087Z,66.98
2022-10-06T11:33:59.734Z,66.31
2022-10-06T11:36:13.857Z,66.74
2022-10-06T11:37:13.682Z,67.41
2022-10-06T11:38:12.983Z,65.57
2022-10-06T11:39:15.167Z,66.84
2022-10-06T11:40:13.494Z,68.05
2022-10-06T11:41:17.188Z,67.58
2022-10-06T11:42:15.038Z,68.98
2022-10-06T11:43:14.335Z,67.35
2022-10-06T11:44:16.522Z,66.74
2022-10-06T11:45:14.841Z,66.67
2022-10-06T11:46:16.126Z,65.67
2022-10-06T11:47:17.373Z,65.91
2022-10-06T11:48:15.670Z,65.88
2022-10-06T11:49:15.909Z,65.04
2022-10-06T11:50:18.071Z,64.67
2022-10-06T11:51:17.428Z,65.91
2022-10-06T11:52:18.652Z,66.44
2022-10-06T11:53:16.959Z,65.88
2022-10-06T11:54:17.198Z,66.71
2022-10-06T11:55:19.401Z,67.21
2022-10-06T11:56:18.743Z,66.24
2022-10-06T11:57:19.074Z,67.11
2022-10-06T11:59:21.147Z,65.30
2022-10-06T12:00:18.976Z,66.44
2022-10-06T12:01:20.186Z,66.84
2022-10-06T12:02:19.554Z,67.61
2022-10-06T12:03:21.715Z,66.37
2022-10-06T12:04:24.386Z,66.20
2022-10-06T12:05:54.900Z,65.64
2022-10-06T12:06:23.168Z,65.26
2022-10-06T12:07:20.981Z,67.31
2022-10-06T12:08:23.178Z,67.41
2022-10-06T12:09:22.341Z,66.87
2022-10-06T12:10:21.779Z,66.77
2022-10-06T12:11:25.447Z,65.41
2022-10-06T12:12:22.275Z,66.14
2022-10-06T12:17:05.612Z,66.47
2022-10-06T12:17:25.618Z,66.27
2022-10-06T12:18:26.800Z,66.47
2022-10-06T12:19:26.015Z,66.40
2022-10-06T12:20:25.380Z,65.84
2022-10-06T12:21:27.767Z,64.96
2022-10-06T12:22:25.957Z,66.43
2022-10-06T12:23:26.376Z,67.11
2022-10-06T12:24:27.560Z,67.03
2022-10-06T12:25:26.951Z,66.60
2022-10-06T12:26:27.287Z,65.06
2022-10-06T12:27:26.599Z,65.80
2022-10-06T12:28:28.809Z,66.00
2022-10-06T12:29:27.108Z,65.41
2022-10-06T12:30:29.381Z,64.97
2022-10-06T12:31:28.611Z,64.67
2022-10-06T12:32:27.871Z,63.26
2022-10-06T12:33:30.059Z,65.10
2022-10-06T12:34:28.370Z,65.20
2022-10-06T12:35:28.609Z,64.17
2022-10-06T12:36:33.305Z,65.73
2022-10-06T12:37:29.151Z,65.23
2022-10-06T12:38:31.339Z,64.83
2022-10-06T12:39:30.523Z,64.86
2022-10-06T12:40:29.961Z,66.10
2022-10-06T12:41:33.629Z,66.20
2022-10-06T12:42:30.462Z,66.67
2022-10-06T12:43:32.647Z,66.67
2022-10-06T12:44:32.835Z,65.94
2022-10-06T12:45:33.250Z,66.40
2022-10-06T12:46:32.635Z,66.34
2022-10-06T12:47:33.815Z,65.70
2022-10-06T12:48:35.008Z,64.90
2022-10-06T12:49:34.247Z,65.00
2022-10-06T12:50:34.421Z,65.84
2022-10-06T12:52:33.416Z,65.30
2022-10-06T12:53:33.781Z,66.40
2022-10-06T12:54:33.985Z,65.77
2022-10-06T12:55:35.176Z,65.90
2022-10-06T12:56:34.949Z,66.10
2022-10-06T12:57:36.637Z,65.80
2022-10-06T12:58:35.213Z,65.56
2022-10-06T12:59:35.381Z,65.56
2022-10-06T13:00:37.490Z,66.30
2022-10-06T13:01:35.971Z,66.94
2022-10-06T13:02:36.239Z,65.94
2022-10-06T13:03:37.447Z,65.10
2022-10-06T13:04:36.739Z,66.67